Ncc Rabigh — HZQA — position and weather

sailwx.info

Track history (hours):
 
Tides and Currents Weather Stations Pressure Air Temp Water Temp Dewpoint Dewpoint Depression Visibility Wind Speed Wind Dir Waves Ship Positions

Ncc Rabigh

Last reported at 2015-Jan-12 12:13 UTC. Time now 2015-Jan-29 22:29 UTC.
Position N 01°51' E 102°28'.
Warning: this ship's position is 17 days out of date.

Length 183 m; draft 11.6 m.

Type: Tanker. MMSI: 403575000.

Date/timePositionNaut miles runAvg speedWind from/ knotsBaromVisibWave heightAir tempDewpointWater temp
2015-Jan-12 12:13N 01°51' E 102°28'1015.0
2015-Jan-12 11:33N 01°47' E 102°37'7214.1
2015-Jan-12 06:28N 01°11' E 103°39'1312.2
2015-Jan-12 05:22N 01°12' E 103°53'1011.8
2015-Jan-12 04:33N 01°16' E 104°02'6 5.9
2015-Jan-12 03:33N 01°22' E 104°03'  
2015-Jan-08 13:07N 01°26' E 104°00'5 8.6
2015-Jan-08 12:30N 01°21' E 104°03'4 3.8
2015-Jan-08 11:31N 01°20' E 104°07'0 0.0
2015-Jan-08 10:31N 01°20' E 104°07'0 0.0
2015-Jan-08 09:25N 01°20' E 104°07'0 0.0
2015-Jan-08 08:07N 01°20' E 104°07'0 0.0
2015-Jan-08 07:31N 01°20' E 104°07'0 0.0
2015-Jan-08 06:07N 01°20' E 104°07'0 0.0
2015-Jan-08 05:31N 01°20' E 104°07'0 0.1
2015-Jan-08 04:25N 01°20' E 104°06'0 0.0
2015-Jan-07 17:31N 01°20' E 104°06'0 0.0
2015-Jan-07 16:13N 01°20' E 104°06'0 0.0
2015-Jan-07 15:13N 01°20' E 104°06'0 0.0
2015-Jan-07 14:13N 01°20' E 104°06'0 0.0
2015-Jan-07 13:13N 01°20' E 104°06'0 0.1
2015-Jan-07 11:25N 01°20' E 104°07'0 0.0
2015-Jan-07 10:25N 01°20' E 104°07'0 0.0
2015-Jan-07 09:31N 01°20' E 104°07'0 0.0
2015-Jan-07 08:13N 01°20' E 104°07'0 0.0
2015-Jan-07 07:31N 01°20' E 104°07'0 0.0
2015-Jan-07 06:19N 01°20' E 104°07'0 0.0
2015-Jan-07 05:13N 01°20' E 104°07'0 0.1
2015-Jan-07 03:31N 01°20' E 104°06'0 0.0
2015-Jan-07 01:25N 01°20' E 104°06'0 0.0
2015-Jan-06 23:28N 01°20' E 104°06'0 0.2
2015-Jan-06 22:07N 01°20' E 104°07'0 0.0
2015-Jan-06 21:25N 01°20' E 104°07'0 0.0
2015-Jan-06 20:25N 01°20' E 104°07'0 0.0
2015-Jan-06 19:19N 01°20' E 104°07'0 0.1
2015-Jan-06 18:25N 01°20' E 104°06'0 0.1
2015-Jan-06 17:25N 01°20' E 104°06'0 0.1
2015-Jan-06 16:31N 01°20' E 104°06'0 0.0
2015-Jan-06 15:31N 01°20' E 104°06'0 0.0
2015-Jan-06 14:31N 01°20' E 104°06'0 0.1
2015-Jan-06 12:25N 01°20' E 104°07'0 0.1
2015-Jan-06 11:07N 01°20' E 104°07'0 0.0
2015-Jan-06 10:31N 01°20' E 104°07'0 0.0
2015-Jan-06 07:25N 01°20' E 104°07'0 0.0
2015-Jan-06 05:25N 01°20' E 104°07'0 0.0
2015-Jan-06 04:19N 01°20' E 104°07'0 0.1
2015-Jan-06 01:25N 01°20' E 104°06'0 0.0
2015-Jan-06 00:19N 01°20' E 104°06'0 0.1
2015-Jan-05 21:28N 01°20' E 104°07'0 0.0
2015-Jan-05 17:31N 01°20' E 104°06'0 0.0
2015-Jan-05 12:13N 01°20' E 104°06'0 0.0
2015-Jan-05 11:25N 01°20' E 104°06'0 0.1
2015-Jan-05 09:25N 01°20' E 104°07'0 0.1
2015-Jan-05 08:13N 01°20' E 104°07'0 0.0
2015-Jan-05 07:19N 01°20' E 104°07'0 0.0
2015-Jan-05 06:07N 01°20' E 104°07'0 0.0
2015-Jan-05 05:19N 01°20' E 104°07'0 0.0
2015-Jan-05 04:25N 01°20' E 104°07'0 0.0
2015-Jan-05 03:31N 01°20' E 104°07'0 0.1
2015-Jan-05 01:30N 01°20' E 104°06'4 4.4
2015-Jan-05 00:32N 01°16' E 104°05'1111.5
2015-Jan-04 23:33N 01°13' E 103°54'13 1.9
2015-Jan-04 17:05N 01°14' E 103°42'0 0.2
2015-Jan-04 16:18N 01°14' E 103°42'0 0.0
2015-Jan-04 15:21N 01°14' E 103°42'0 0.0
2015-Jan-04 14:30N 01°14' E 103°42'0 0.0
2015-Jan-04 13:33N 01°14' E 103°42'0 0.0
2015-Jan-04 12:27N 01°14' E 103°42'0 0.0
2015-Jan-04 11:33N 01°14' E 103°42'0 0.0
2015-Jan-04 10:30N 01°14' E 103°42'0 0.0
2015-Jan-04 09:33N 01°14' E 103°42'0 0.0
2015-Jan-04 08:33N 01°14' E 103°42'1 0.0
2015-Jan-03 16:21N 01°14' E 103°41'3 3.2
2015-Jan-03 15:30N 01°13' E 103°39'0 0.1
2015-Jan-03 14:30N 01°13' E 103°39'0 0.0
2015-Jan-03 11:30N 01°13' E 103°39'0 0.1
2015-Jan-03 10:33N 01°13' E 103°39'0 0.0
2015-Jan-03 09:27N 01°13' E 103°39'0 0.0
2015-Jan-03 08:12N 01°13' E 103°39'0 0.0
2015-Jan-03 07:33N 01°13' E 103°39'0 0.0
2015-Jan-03 06:33N 01°13' E 103°39'0 0.0
2015-Jan-03 05:33N 01°13' E 103°39'10 0.7
2015-Jan-02 15:32N 01°11' E 103°48'8 8.5
2015-Jan-02 14:33N 01°14' E 103°56'9 8.7
2015-Jan-02 13:33N 01°16' E 104°04'9 9.3
2015-Jan-02 12:33N 01°17' E 104°14'  
Track history (hours):
 
Tides and Currents Weather Stations Pressure Air Temp Water Temp Dewpoint Dewpoint Depression Visibility Wind Speed Wind Dir Waves Ship Positions

Ncc Rabigh

Last reported at 2015-Jan-12 12:13 UTC. Time now 2015-Jan-29 22:29 UTC.
Position N 01°51' E 102°28'.
Warning: this ship's position is 17 days out of date.

Length 183 m; draft 11.6 m.

Type: Tanker. MMSI: 403575000.

Date/timePositionNaut miles runAvg speedWind from/ knotsBaromVisibWave heightAir tempDewpointWater temp
2015-Jan-12 12:13N 01°51' E 102°28'1015.0
2015-Jan-12 11:33N 01°47' E 102°37'7214.1
2015-Jan-12 06:28N 01°11' E 103°39'1312.2
2015-Jan-12 05:22N 01°12' E 103°53'1011.8
2015-Jan-12 04:33N 01°16' E 104°02'6 5.9
2015-Jan-12 03:33N 01°22' E 104°03'  
2015-Jan-08 13:07N 01°26' E 104°00'5 8.6
2015-Jan-08 12:30N 01°21' E 104°03'4 3.8
2015-Jan-08 11:31N 01°20' E 104°07'0 0.0
2015-Jan-08 10:31N 01°20' E 104°07'0 0.0
2015-Jan-08 09:25N 01°20' E 104°07'0 0.0
2015-Jan-08 08:07N 01°20' E 104°07'0 0.0
2015-Jan-08 07:31N 01°20' E 104°07'0 0.0
2015-Jan-08 06:07N 01°20' E 104°07'0 0.0
2015-Jan-08 05:31N 01°20' E 104°07'0 0.1
2015-Jan-08 04:25N 01°20' E 104°06'0 0.0
2015-Jan-07 17:31N 01°20' E 104°06'0 0.0
2015-Jan-07 16:13N 01°20' E 104°06'0 0.0
2015-Jan-07 15:13N 01°20' E 104°06'0 0.0
2015-Jan-07 14:13N 01°20' E 104°06'0 0.0
2015-Jan-07 13:13N 01°20' E 104°06'0 0.1
2015-Jan-07 11:25N 01°20' E 104°07'0 0.0
2015-Jan-07 10:25N 01°20' E 104°07'0 0.0
2015-Jan-07 09:31N 01°20' E 104°07'0 0.0
2015-Jan-07 08:13N 01°20' E 104°07'0 0.0
2015-Jan-07 07:31N 01°20' E 104°07'0 0.0
2015-Jan-07 06:19N 01°20' E 104°07'0 0.0
2015-Jan-07 05:13N 01°20' E 104°07'0 0.1
2015-Jan-07 03:31N 01°20' E 104°06'0 0.0
2015-Jan-07 01:25N 01°20' E 104°06'0 0.0
2015-Jan-06 23:28N 01°20' E 104°06'0 0.2
2015-Jan-06 22:07N 01°20' E 104°07'0 0.0
2015-Jan-06 21:25N 01°20' E 104°07'0 0.0
2015-Jan-06 20:25N 01°20' E 104°07'0 0.0
2015-Jan-06 19:19N 01°20' E 104°07'0 0.1
2015-Jan-06 18:25N 01°20' E 104°06'0 0.1
2015-Jan-06 17:25N 01°20' E 104°06'0 0.1
2015-Jan-06 16:31N 01°20' E 104°06'0 0.0
2015-Jan-06 15:31N 01°20' E 104°06'0 0.0
2015-Jan-06 14:31N 01°20' E 104°06'0 0.1
2015-Jan-06 12:25N 01°20' E 104°07'0 0.1
2015-Jan-06 11:07N 01°20' E 104°07'0 0.0
2015-Jan-06 10:31N 01°20' E 104°07'0 0.0
2015-Jan-06 07:25N 01°20' E 104°07'0 0.0
2015-Jan-06 05:25N 01°20' E 104°07'0 0.0
2015-Jan-06 04:19N 01°20' E 104°07'0 0.1
2015-Jan-06 01:25N 01°20' E 104°06'0 0.0
2015-Jan-06 00:19N 01°20' E 104°06'0 0.1
2015-Jan-05 21:28N 01°20' E 104°07'0 0.0
2015-Jan-05 17:31N 01°20' E 104°06'0 0.0
2015-Jan-05 12:13N 01°20' E 104°06'0 0.0
2015-Jan-05 11:25N 01°20' E 104°06'0 0.1
2015-Jan-05 09:25N 01°20' E 104°07'0 0.1
2015-Jan-05 08:13N 01°20' E 104°07'0 0.0
2015-Jan-05 07:19N 01°20' E 104°07'0 0.0
2015-Jan-05 06:07N 01°20' E 104°07'0 0.0
2015-Jan-05 05:19N 01°20' E 104°07'0 0.0
2015-Jan-05 04:25N 01°20' E 104°07'0 0.0
2015-Jan-05 03:31N 01°20' E 104°07'0 0.1
2015-Jan-05 01:30N 01°20' E 104°06'4 4.4
2015-Jan-05 00:32N 01°16' E 104°05'1111.5
2015-Jan-04 23:33N 01°13' E 103°54'13 1.9
2015-Jan-04 17:05N 01°14' E 103°42'0 0.2
2015-Jan-04 16:18N 01°14' E 103°42'0 0.0
2015-Jan-04 15:21N 01°14' E 103°42'0 0.0
2015-Jan-04 14:30N 01°14' E 103°42'0 0.0
2015-Jan-04 13:33N 01°14' E 103°42'0 0.0
2015-Jan-04 12:27N 01°14' E 103°42'0 0.0
2015-Jan-04 11:33N 01°14' E 103°42'0 0.0
2015-Jan-04 10:30N 01°14' E 103°42'0 0.0
2015-Jan-04 09:33N 01°14' E 103°42'0 0.0
2015-Jan-04 08:33N 01°14' E 103°42'1 0.0
2015-Jan-03 16:21N 01°14' E 103°41'3 3.2
2015-Jan-03 15:30N 01°13' E 103°39'0 0.1
2015-Jan-03 14:30N 01°13' E 103°39'0 0.0
2015-Jan-03 11:30N 01°13' E 103°39'0 0.1
2015-Jan-03 10:33N 01°13' E 103°39'0 0.0
2015-Jan-03 09:27N 01°13' E 103°39'0 0.0
2015-Jan-03 08:12N 01°13' E 103°39'0 0.0
2015-Jan-03 07:33N 01°13' E 103°39'0 0.0
2015-Jan-03 06:33N 01°13' E 103°39'0 0.0
2015-Jan-03 05:33N 01°13' E 103°39'10 0.7
2015-Jan-02 15:32N 01°11' E 103°48'8 8.5
2015-Jan-02 14:33N 01°14' E 103°56'9 8.7
2015-Jan-02 13:33N 01°16' E 104°04'9 9.3
2015-Jan-02 12:33N 01°17' E 104°14'  

Dump ship's entire track history